Home > Products > Valid Products > MTR

000
SAUS45 KREV 260154
MTRDRA
METAR KDRA 260153Z AUTO 31011KT 10SM OVC090 19/01 A2995 RMK AO2
SLP113 T01940006





000
SAUS45 KREV 252354
MTRDRA
METAR KDRA 252353Z AUTO 27006KT 10SM CLR 23/M02 A2991 RMK AO2 SLP099
60000 T02281022 10239 20194 58007





000
SAUS45 KREV 252054
MTRDRA
METAR KDRA 252053Z AUTO 19007KT 160V230 10SM CLR 23/01 A2993 RMK AO2
SLP102 T02330006 58014





000
SAUS45 KREV 251155
MTRDRA
METAR KDRA 251153Z AUTO 00000KT 10SM CLR 09/01 A2995 RMK AO2 SLP111
T00940006 10172 20094 53001





000
SAUS45 KREV 250855
MTRDRA
METAR KDRA 250853Z AUTO 36004KT 10SM CLR 13/01 A2994 RMK AO2 SLP106
T01330011 53008





000
SAUS45 KREV 250555
MTRDRA
METAR KDRA 250553Z AUTO 23012KT 10SM CLR 17/01 A2992 RMK AO2 SLP097
T01720006 10233 20172 51018





000
SAUS45 KREV 250113
MTRDRA
SPECI KDRA 250111Z AUTO 24013G21KT 10SM BKN100 22/M02 A2984 RMK AO2
WSHFT 0054 T02221017





000
SAUS45 KREV 250055
MTRDRA
METAR KDRA 250053Z AUTO 18013G23KT 10SM FEW090 23/M02 A2984 RMK AO2
SLP072 T02281017





000
SAUS45 KREV 241854
MTRDRA
METAR KDRA 241853Z AUTO 23018G26KT 10SM CLR 21/02 A2985 RMK AO2 PK
WND 23031/1806 SLP072 T02060017





000
SAUS45 KREV 241654
MTRDRA
METAR KDRA 241653Z AUTO 23018G27KT 10SM CLR 18/03 A2983 RMK AO2 PK
WND 24028/1601 SLP065 T01780028





000
SAUS45 KREV 241454
MTRDRA
METAR KDRA 241453Z AUTO 24015KT 10SM CLR 15/03 A2980 RMK AO2 SLP057
T01500028 51017





000
SAUS45 KREV 241254
MTRDRA
METAR KDRA 241253Z AUTO 25016KT 10SM CLR 13/02 A2976 RMK AO2 SLP043
T01280022





000
SAUS45 KREV 241154
MTRDRA
METAR KDRA 241153Z AUTO 19010KT 10SM CLR 14/01 A2975 RMK AO2 SLP036
T01440006 10183 20139 53003





000
SAUS45 KREV 241054
MTRDRA
METAR KDRA 241053Z AUTO 21007KT 10SM CLR 15/M03 A2974 RMK AO2 SLP032
T01501033





000
SAUS45 KREV 240855
MTRDRA
METAR KDRA 240853Z AUTO 17013KT 10SM CLR 17/M03 A2974 RMK AO2 SLP029
T01671028 58001





000
SAUS45 KREV 240754
MTRDRA
METAR KDRA 240753Z AUTO 17010KT 10SM CLR 17/M01 A2975 RMK AO2 SLP035
T01671011 402560111





000
SAUS45 KREV 240654
MTRDRA
METAR KDRA 240653Z AUTO 18018G23KT 10SM CLR 18/M02 A2974 RMK AO2
SLP033 T01781017





000
SAUS45 KREV 240554
MTRDRA
METAR KDRA 240553Z AUTO 20012G22KT 10SM CLR 18/00 A2974 RMK AO2
SLP033 T01830000 10244 20183 51011





000
SAUS45 KREV 240055
MTRDRA
METAR KDRA 240053Z AUTO 21015G24KT 10SM CLR 24/M08 A2972 RMK AO2 PK
WND 21028/0038 SLP029 T02391083





000
SAUS45 KREV 232355
MTRDRA
METAR KDRA 232353Z AUTO 21013G24KT 10SM CLR 24/M09 A2974 RMK AO2 PK
WND 23028/2256 SLP034 T02441089 10256 20206 56010





000
SAUS45 KREV 232054
MTRDRA
METAR KDRA 232053Z AUTO 22021G28KT 10SM CLR 25/M07 A2977 RMK AO2 PK
WND 22031/2022 SLP043 T02501067 58023





000
SAUS45 KREV 231954
MTRDRA
METAR KDRA 231953Z AUTO 22019G27KT 10SM CLR 24/M05 A2980 RMK AO2 PK
WND 21027/1952 SLP052 T02441050





000
SAUS45 KREV 231854
MTRDRA
METAR KDRA 231853Z AUTO 23013G25KT 10SM CLR 23/M02 A2982 RMK AO2
SLP062 T02331022





000
SAUS45 KREV 231554
MTRDRA
METAR KDRA 231553Z AUTO 00000KT 10SM CLR 18/M01 A2986 RMK AO2 SLP078
T01781011





000
SAUS45 KREV 231455
MTRDRA
METAR KDRA 231453Z AUTO 23007KT 10SM CLR 17/M02 A2986 RMK AO2 SLP076
T01721017 53011





000
SAUS45 KREV 231355
MTRDRA
METAR KDRA 231353Z AUTO 00000KT 10SM CLR 16/M03 A2984 RMK AO2 SLP070
T01611028





000
SAUS45 KREV 231254
MTRDRA
METAR KDRA 231253Z AUTO VRB06KT 10SM CLR 13/M03 A2983 RMK AO2 SLP066
T01281033





000
SAUS45 KREV 231154
MTRDRA
METAR KDRA 231153Z AUTO 36007KT 10SM CLR 12/M06 A2982 RMK AO2 SLP064
T01221056 10172 20111 56005





000
SAUS45 KREV 230654
MTRDRA
METAR KDRA 230653Z AUTO 35006KT 10SM CLR 16/M08 A2985 RMK AO2 SLP074
T01611078





000
SAUS45 KREV 230555
MTRDRA
METAR KDRA 230553Z AUTO 32008KT 10SM CLR 17/M08 A2985 RMK AO2 SLP077
T01671078 10233 20144 50004





    US Dept of Commerce
    National Oceanic and Atmospheric Administration
    National Weather Service
    1325 East West Highway
    Silver Spring, MD 20910
    Page Author: NWS Internet Services Team
Disclaimer
Information Quality
Credits
Glossary
Privacy Policy
Freedom of Information Act (FOIA)
About Us
Career Opportunities